sensor_id;sensor_type;location;lat;lon;timestamp;P1;durP1;ratioP1;P2;durP2;ratioP2
74448;SDS011;62878;51.026;4.472;2022-12-18T00:01:36;18.55;;;10.07;;
74448;SDS011;62878;51.026;4.472;2022-12-18T00:04:03;18.02;;;10.35;;
74448;SDS011;62878;51.026;4.472;2022-12-18T00:06:29;20.70;;;10.77;;
74448;SDS011;62878;51.026;4.472;2022-12-18T00:08:56;18.73;;;10.35;;
74448;SDS011;62878;51.026;4.472;2022-12-18T00:11:23;22.17;;;10.02;;
74448;SDS011;62878;51.026;4.472;2022-12-18T00:13:51;20.35;;;10.70;;
74448;SDS011;62878;51.026;4.472;2022-12-18T00:16:19;23.15;;;11.40;;
74448;SDS011;62878;51.026;4.472;2022-12-18T00:18:46;16.25;;;9.30;;
74448;SDS011;62878;51.026;4.472;2022-12-18T00:21:12;20.65;;;10.77;;
74448;SDS011;62878;51.026;4.472;2022-12-18T00:23:39;18.60;;;11.13;;
74448;SDS011;62878;51.026;4.472;2022-12-18T00:26:07;20.88;;;10.38;;
74448;SDS011;62878;51.026;4.472;2022-12-18T00:28:36;21.08;;;11.80;;
74448;SDS011;62878;51.026;4.472;2022-12-18T00:31:02;22.75;;;10.55;;
74448;SDS011;62878;51.026;4.472;2022-12-18T00:33:28;23.08;;;10.95;;
74448;SDS011;62878;51.026;4.472;2022-12-18T00:35:53;17.98;;;10.73;;
74448;SDS011;62878;51.026;4.472;2022-12-18T00:38:19;22.23;;;9.93;;
74448;SDS011;62878;51.026;4.472;2022-12-18T00:40:44;17.92;;;10.25;;
74448;SDS011;62878;51.026;4.472;2022-12-18T00:43:10;19.98;;;11.68;;
74448;SDS011;62878;51.026;4.472;2022-12-18T00:45:36;22.25;;;11.27;;
74448;SDS011;62878;51.026;4.472;2022-12-18T00:48:01;19.73;;;11.20;;
74448;SDS011;62878;51.026;4.472;2022-12-18T00:50:27;23.08;;;12.63;;
74448;SDS011;62878;51.026;4.472;2022-12-18T00:52:52;18.90;;;11.38;;
74448;SDS011;62878;51.026;4.472;2022-12-18T00:55:17;21.63;;;12.27;;
74448;SDS011;62878;51.026;4.472;2022-12-18T00:57:43;21.10;;;11.98;;
74448;SDS011;62878;51.026;4.472;2022-12-18T01:00:10;19.70;;;10.65;;
74448;SDS011;62878;51.026;4.472;2022-12-18T01:02:38;18.10;;;10.07;;
74448;SDS011;62878;51.026;4.472;2022-12-18T01:05:03;22.33;;;10.95;;
74448;SDS011;62878;51.026;4.472;2022-12-18T01:07:29;18.75;;;10.82;;
74448;SDS011;62878;51.026;4.472;2022-12-18T01:09:55;21.00;;;11.82;;
74448;SDS011;62878;51.026;4.472;2022-12-18T01:12:20;22.10;;;12.30;;
74448;SDS011;62878;51.026;4.472;2022-12-18T01:14:45;24.60;;;12.10;;
74448;SDS011;62878;51.026;4.472;2022-12-18T01:17:11;22.65;;;11.70;;
74448;SDS011;62878;51.026;4.472;2022-12-18T01:19:36;23.00;;;11.65;;
74448;SDS011;62878;51.026;4.472;2022-12-18T01:22:01;25.98;;;12.13;;
74448;SDS011;62878;51.026;4.472;2022-12-18T01:24:26;22.25;;;11.80;;
74448;SDS011;62878;51.026;4.472;2022-12-18T01:26:52;24.15;;;13.52;;
74448;SDS011;62878;51.026;4.472;2022-12-18T01:29:17;22.67;;;11.82;;
74448;SDS011;62878;51.026;4.472;2022-12-18T01:31:43;25.75;;;12.50;;
74448;SDS011;62878;51.026;4.472;2022-12-18T01:34:08;22.20;;;11.18;;
74448;SDS011;62878;51.026;4.472;2022-12-18T01:36:35;20.13;;;11.82;;
74448;SDS011;62878;51.026;4.472;2022-12-18T01:39:04;18.67;;;10.70;;
74448;SDS011;62878;51.026;4.472;2022-12-18T01:41:32;24.85;;;11.85;;
74448;SDS011;62878;51.026;4.472;2022-12-18T01:47:12;20.02;;;11.35;;
74448;SDS011;62878;51.026;4.472;2022-12-18T01:49:43;21.27;;;10.95;;
74448;SDS011;62878;51.026;4.472;2022-12-18T01:52:08;23.65;;;11.32;;
74448;SDS011;62878;51.026;4.472;2022-12-18T01:54:34;20.42;;;12.05;;
74448;SDS011;62878;51.026;4.472;2022-12-18T01:56:59;21.40;;;11.38;;
74448;SDS011;62878;51.026;4.472;2022-12-18T01:59:25;23.15;;;11.52;;
74448;SDS011;62878;51.026;4.472;2022-12-18T02:01:52;21.88;;;11.60;;
74448;SDS011;62878;51.026;4.472;2022-12-18T02:06:51;22.13;;;12.55;;
74448;SDS011;62878;51.026;4.472;2022-12-18T02:09:56;21.83;;;11.27;;
74448;SDS011;62878;51.026;4.472;2022-12-18T02:12:43;24.20;;;11.60;;
74448;SDS011;62878;51.026;4.472;2022-12-18T02:15:15;21.73;;;11.88;;
74448;SDS011;62878;51.026;4.472;2022-12-18T02:18:05;21.92;;;11.20;;
74448;SDS011;62878;51.026;4.472;2022-12-18T02:20:40;25.75;;;11.35;;
74448;SDS011;62878;51.026;4.472;2022-12-18T02:28:59;23.38;;;11.73;;
74448;SDS011;62878;51.026;4.472;2022-12-18T02:31:30;20.38;;;10.27;;
74448;SDS011;62878;51.026;4.472;2022-12-18T02:34:03;19.15;;;10.68;;
74448;SDS011;62878;51.026;4.472;2022-12-18T02:36:30;21.58;;;11.50;;
74448;SDS011;62878;51.026;4.472;2022-12-18T02:38:58;22.17;;;11.73;;
74448;SDS011;62878;51.026;4.472;2022-12-18T02:41:24;22.10;;;11.35;;
74448;SDS011;62878;51.026;4.472;2022-12-18T02:43:58;25.83;;;11.95;;
74448;SDS011;62878;51.026;4.472;2022-12-18T02:48:54;21.83;;;10.93;;
74448;SDS011;62878;51.026;4.472;2022-12-18T02:51:31;22.80;;;11.45;;
74448;SDS011;62878;51.026;4.472;2022-12-18T02:54:06;21.90;;;11.10;;
74448;SDS011;62878;51.026;4.472;2022-12-18T02:56:39;19.77;;;10.95;;
74448;SDS011;62878;51.026;4.472;2022-12-18T02:59:15;20.88;;;11.07;;
74448;SDS011;62878;51.026;4.472;2022-12-18T03:04:26;19.60;;;10.30;;
74448;SDS011;62878;51.026;4.472;2022-12-18T03:06:56;20.27;;;10.45;;
74448;SDS011;62878;51.026;4.472;2022-12-18T03:09:29;21.45;;;12.05;;
74448;SDS011;62878;51.026;4.472;2022-12-18T03:17:38;22.58;;;10.93;;
74448;SDS011;62878;51.026;4.472;2022-12-18T03:20:10;24.90;;;12.27;;
74448;SDS011;62878;51.026;4.472;2022-12-18T03:22:39;19.33;;;11.48;;
74448;SDS011;62878;51.026;4.472;2022-12-18T03:25:09;21.63;;;11.45;;
74448;SDS011;62878;51.026;4.472;2022-12-18T03:27:38;21.92;;;11.73;;
74448;SDS011;62878;51.026;4.472;2022-12-18T03:30:11;20.05;;;10.73;;
74448;SDS011;62878;51.026;4.472;2022-12-18T03:32:39;18.95;;;11.35;;
74448;SDS011;62878;51.026;4.472;2022-12-18T03:35:06;24.00;;;12.45;;
74448;SDS011;62878;51.026;4.472;2022-12-18T03:37:34;18.38;;;9.75;;
74448;SDS011;62878;51.026;4.472;2022-12-18T03:40:00;20.85;;;10.45;;
74448;SDS011;62878;51.026;4.472;2022-12-18T03:47:27;21.25;;;11.52;;
74448;SDS011;62878;51.026;4.472;2022-12-18T03:50:14;22.80;;;11.00;;
74448;SDS011;62878;51.026;4.472;2022-12-18T03:52:49;22.05;;;11.15;;
74448;SDS011;62878;51.026;4.472;2022-12-18T03:55:19;23.02;;;12.23;;
74448;SDS011;62878;51.026;4.472;2022-12-18T03:57:47;21.23;;;11.95;;
74448;SDS011;62878;51.026;4.472;2022-12-18T04:00:14;21.35;;;11.13;;
74448;SDS011;62878;51.026;4.472;2022-12-18T04:02:46;21.25;;;11.02;;
74448;SDS011;62878;51.026;4.472;2022-12-18T04:05:15;21.80;;;11.15;;
74448;SDS011;62878;51.026;4.472;2022-12-18T04:07:43;22.63;;;11.20;;
74448;SDS011;62878;51.026;4.472;2022-12-18T04:10:10;19.05;;;10.27;;
74448;SDS011;62878;51.026;4.472;2022-12-18T04:12:38;17.20;;;10.30;;
74448;SDS011;62878;51.026;4.472;2022-12-18T04:15:04;22.45;;;10.52;;
74448;SDS011;62878;51.026;4.472;2022-12-18T04:17:30;23.42;;;11.00;;
74448;SDS011;62878;51.026;4.472;2022-12-18T04:19:55;24.40;;;11.52;;
74448;SDS011;62878;51.026;4.472;2022-12-18T04:22:20;20.70;;;10.98;;
74448;SDS011;62878;51.026;4.472;2022-12-18T04:24:46;22.00;;;10.55;;
74448;SDS011;62878;51.026;4.472;2022-12-18T04:27:11;21.20;;;11.82;;
74448;SDS011;62878;51.026;4.472;2022-12-18T04:29:37;23.95;;;10.48;;
74448;SDS011;62878;51.026;4.472;2022-12-18T04:32:02;21.20;;;10.40;;
74448;SDS011;62878;51.026;4.472;2022-12-18T04:34:28;18.33;;;9.43;;
74448;SDS011;62878;51.026;4.472;2022-12-18T04:36:53;19.05;;;10.27;;
74448;SDS011;62878;51.026;4.472;2022-12-18T04:39:18;20.10;;;10.98;;
74448;SDS011;62878;51.026;4.472;2022-12-18T04:41:44;20.73;;;10.30;;
74448;SDS011;62878;51.026;4.472;2022-12-18T04:44:09;19.42;;;10.45;;
74448;SDS011;62878;51.026;4.472;2022-12-18T04:46:35;20.67;;;10.77;;
74448;SDS011;62878;51.026;4.472;2022-12-18T04:49:00;18.80;;;10.90;;
74448;SDS011;62878;51.026;4.472;2022-12-18T04:51:26;20.27;;;10.70;;
74448;SDS011;62878;51.026;4.472;2022-12-18T04:53:51;19.48;;;10.30;;
74448;SDS011;62878;51.026;4.472;2022-12-18T04:56:16;21.52;;;11.05;;
74448;SDS011;62878;51.026;4.472;2022-12-18T04:58:43;20.98;;;9.93;;
74448;SDS011;62878;51.026;4.472;2022-12-18T05:01:09;19.65;;;10.85;;
74448;SDS011;62878;51.026;4.472;2022-12-18T05:03:38;20.02;;;10.18;;
74448;SDS011;62878;51.026;4.472;2022-12-18T05:06:04;21.00;;;11.05;;
74448;SDS011;62878;51.026;4.472;2022-12-18T05:08:30;16.27;;;9.98;;
74448;SDS011;62878;51.026;4.472;2022-12-18T05:11:03;20.10;;;9.85;;
74448;SDS011;62878;51.026;4.472;2022-12-18T05:13:34;20.90;;;10.80;;
74448;SDS011;62878;51.026;4.472;2022-12-18T05:16:00;18.63;;;9.75;;
74448;SDS011;62878;51.026;4.472;2022-12-18T05:18:25;17.98;;;9.55;;
74448;SDS011;62878;51.026;4.472;2022-12-18T05:20:51;19.98;;;9.10;;
74448;SDS011;62878;51.026;4.472;2022-12-18T05:23:17;17.17;;;8.93;;
74448;SDS011;62878;51.026;4.472;2022-12-18T05:25:46;15.35;;;9.23;;
74448;SDS011;62878;51.026;4.472;2022-12-18T05:28:25;20.98;;;10.45;;
74448;SDS011;62878;51.026;4.472;2022-12-18T05:30:54;20.50;;;9.80;;
74448;SDS011;62878;51.026;4.472;2022-12-18T05:33:21;18.02;;;9.32;;
74448;SDS011;62878;51.026;4.472;2022-12-18T05:35:51;18.60;;;9.48;;
74448;SDS011;62878;51.026;4.472;2022-12-18T05:38:18;18.90;;;8.98;;
74448;SDS011;62878;51.026;4.472;2022-12-18T05:40:44;17.58;;;9.38;;
74448;SDS011;62878;51.026;4.472;2022-12-18T05:43:10;18.83;;;9.70;;
74448;SDS011;62878;51.026;4.472;2022-12-18T05:45:38;19.58;;;9.70;;
74448;SDS011;62878;51.026;4.472;2022-12-18T05:48:04;17.77;;;9.55;;
74448;SDS011;62878;51.026;4.472;2022-12-18T05:50:30;19.23;;;9.98;;
74448;SDS011;62878;51.026;4.472;2022-12-18T05:52:55;20.48;;;9.48;;
74448;SDS011;62878;51.026;4.472;2022-12-18T05:55:20;22.33;;;9.57;;
74448;SDS011;62878;51.026;4.472;2022-12-18T05:57:46;18.88;;;9.35;;
74448;SDS011;62878;51.026;4.472;2022-12-18T06:00:11;19.83;;;10.65;;
74448;SDS011;62878;51.026;4.472;2022-12-18T06:02:37;21.73;;;10.02;;
74448;SDS011;62878;51.026;4.472;2022-12-18T06:05:03;18.23;;;9.52;;
74448;SDS011;62878;51.026;4.472;2022-12-18T06:07:28;19.42;;;9.30;;
74448;SDS011;62878;51.026;4.472;2022-12-18T06:09:54;19.20;;;9.32;;
74448;SDS011;62878;51.026;4.472;2022-12-18T06:12:19;16.90;;;9.55;;
74448;SDS011;62878;51.026;4.472;2022-12-18T06:14:44;17.67;;;9.30;;
74448;SDS011;62878;51.026;4.472;2022-12-18T06:17:10;18.00;;;10.30;;
74448;SDS011;62878;51.026;4.472;2022-12-18T06:19:35;18.92;;;9.80;;
74448;SDS011;62878;51.026;4.472;2022-12-18T06:22:00;16.05;;;9.25;;
74448;SDS011;62878;51.026;4.472;2022-12-18T06:24:26;19.77;;;9.52;;
74448;SDS011;62878;51.026;4.472;2022-12-18T06:26:51;19.35;;;9.82;;
74448;SDS011;62878;51.026;4.472;2022-12-18T06:29:16;18.17;;;9.98;;
74448;SDS011;62878;51.026;4.472;2022-12-18T06:31:42;20.15;;;9.52;;
74448;SDS011;62878;51.026;4.472;2022-12-18T06:34:07;16.08;;;7.90;;
74448;SDS011;62878;51.026;4.472;2022-12-18T06:36:32;19.83;;;9.63;;
74448;SDS011;62878;51.026;4.472;2022-12-18T06:38:59;16.80;;;9.07;;
74448;SDS011;62878;51.026;4.472;2022-12-18T06:41:24;18.60;;;9.65;;
74448;SDS011;62878;51.026;4.472;2022-12-18T06:43:50;18.17;;;9.50;;
74448;SDS011;62878;51.026;4.472;2022-12-18T06:46:15;16.38;;;8.65;;
74448;SDS011;62878;51.026;4.472;2022-12-18T06:48:40;18.83;;;9.68;;
74448;SDS011;62878;51.026;4.472;2022-12-18T06:51:06;16.92;;;8.80;;
74448;SDS011;62878;51.026;4.472;2022-12-18T06:53:31;16.27;;;7.90;;
74448;SDS011;62878;51.026;4.472;2022-12-18T06:56:04;17.13;;;7.93;;
74448;SDS011;62878;51.026;4.472;2022-12-18T06:58:31;16.53;;;9.13;;
74448;SDS011;62878;51.026;4.472;2022-12-18T07:01:00;16.35;;;8.20;;
74448;SDS011;62878;51.026;4.472;2022-12-18T07:03:27;18.02;;;8.88;;
74448;SDS011;62878;51.026;4.472;2022-12-18T07:05:52;18.67;;;8.75;;
74448;SDS011;62878;51.026;4.472;2022-12-18T07:08:17;16.38;;;8.10;;
74448;SDS011;62878;51.026;4.472;2022-12-18T07:10:43;18.30;;;8.25;;
74448;SDS011;62878;51.026;4.472;2022-12-18T07:13:08;17.95;;;9.57;;
74448;SDS011;62878;51.026;4.472;2022-12-18T07:15:35;17.83;;;8.85;;
74448;SDS011;62878;51.026;4.472;2022-12-18T07:18:00;17.75;;;8.32;;
74448;SDS011;62878;51.026;4.472;2022-12-18T07:20:26;18.50;;;8.88;;
74448;SDS011;62878;51.026;4.472;2022-12-18T07:22:51;15.40;;;7.63;;
74448;SDS011;62878;51.026;4.472;2022-12-18T07:25:17;18.35;;;9.43;;
74448;SDS011;62878;51.026;4.472;2022-12-18T07:27:42;14.48;;;7.15;;
74448;SDS011;62878;51.026;4.472;2022-12-18T07:30:08;12.98;;;7.57;;
74448;SDS011;62878;51.026;4.472;2022-12-18T07:32:34;14.63;;;7.28;;
74448;SDS011;62878;51.026;4.472;2022-12-18T07:34:59;16.48;;;8.02;;
74448;SDS011;62878;51.026;4.472;2022-12-18T07:37:25;18.25;;;9.30;;
74448;SDS011;62878;51.026;4.472;2022-12-18T07:39:50;18.02;;;7.85;;
74448;SDS011;62878;51.026;4.472;2022-12-18T07:42:15;16.30;;;7.88;;
74448;SDS011;62878;51.026;4.472;2022-12-18T07:44:56;15.13;;;7.15;;
74448;SDS011;62878;51.026;4.472;2022-12-18T07:47:22;15.68;;;7.07;;
74448;SDS011;62878;51.026;4.472;2022-12-18T07:49:47;16.85;;;7.75;;
74448;SDS011;62878;51.026;4.472;2022-12-18T07:52:12;15.30;;;7.10;;
74448;SDS011;62878;51.026;4.472;2022-12-18T07:54:38;13.30;;;7.72;;
74448;SDS011;62878;51.026;4.472;2022-12-18T07:57:04;17.50;;;7.40;;
74448;SDS011;62878;51.026;4.472;2022-12-18T07:59:30;16.63;;;7.75;;
74448;SDS011;62878;51.026;4.472;2022-12-18T08:01:55;17.20;;;8.20;;
74448;SDS011;62878;51.026;4.472;2022-12-18T08:04:20;18.30;;;8.75;;
74448;SDS011;62878;51.026;4.472;2022-12-18T08:06:45;14.40;;;7.38;;
74448;SDS011;62878;51.026;4.472;2022-12-18T08:09:11;14.82;;;8.25;;
74448;SDS011;62878;51.026;4.472;2022-12-18T08:11:36;16.92;;;8.48;;
74448;SDS011;62878;51.026;4.472;2022-12-18T08:14:01;14.68;;;7.85;;
74448;SDS011;62878;51.026;4.472;2022-12-18T08:16:27;16.50;;;8.38;;
74448;SDS011;62878;51.026;4.472;2022-12-18T08:18:52;17.08;;;7.97;;
74448;SDS011;62878;51.026;4.472;2022-12-18T08:21:26;15.85;;;8.50;;
74448;SDS011;62878;51.026;4.472;2022-12-18T08:23:53;16.73;;;7.55;;
74448;SDS011;62878;51.026;4.472;2022-12-18T08:26:21;17.13;;;8.63;;
74448;SDS011;62878;51.026;4.472;2022-12-18T08:28:47;13.43;;;8.10;;
74448;SDS011;62878;51.026;4.472;2022-12-18T08:31:13;14.63;;;6.65;;
74448;SDS011;62878;51.026;4.472;2022-12-18T08:33:38;15.52;;;7.07;;
74448;SDS011;62878;51.026;4.472;2022-12-18T08:36:04;14.02;;;6.40;;
74448;SDS011;62878;51.026;4.472;2022-12-18T08:38:31;18.75;;;8.10;;
74448;SDS011;62878;51.026;4.472;2022-12-18T08:41:07;27.38;;;10.93;;
74448;SDS011;62878;51.026;4.472;2022-12-18T08:43:36;31.27;;;10.18;;
74448;SDS011;62878;51.026;4.472;2022-12-18T08:46:20;23.23;;;10.35;;
74448;SDS011;62878;51.026;4.472;2022-12-18T08:48:47;23.17;;;9.68;;
74448;SDS011;62878;51.026;4.472;2022-12-18T08:51:12;20.92;;;10.77;;
74448;SDS011;62878;51.026;4.472;2022-12-18T08:53:40;20.27;;;9.82;;
74448;SDS011;62878;51.026;4.472;2022-12-18T08:56:05;20.55;;;9.40;;
74448;SDS011;62878;51.026;4.472;2022-12-18T08:58:31;19.08;;;8.73;;
74448;SDS011;62878;51.026;4.472;2022-12-18T09:01:03;19.33;;;9.20;;
74448;SDS011;62878;51.026;4.472;2022-12-18T09:03:30;17.77;;;8.75;;
74448;SDS011;62878;51.026;4.472;2022-12-18T09:05:55;15.88;;;8.65;;
74448;SDS011;62878;51.026;4.472;2022-12-18T09:08:21;19.98;;;8.57;;
74448;SDS011;62878;51.026;4.472;2022-12-18T09:10:47;17.30;;;8.55;;
74448;SDS011;62878;51.026;4.472;2022-12-18T09:13:14;17.77;;;9.15;;
74448;SDS011;62878;51.026;4.472;2022-12-18T09:15:50;22.33;;;8.52;;
74448;SDS011;62878;51.026;4.472;2022-12-18T09:18:17;12.40;;;7.15;;
74448;SDS011;62878;51.026;4.472;2022-12-18T09:20:44;19.75;;;8.55;;
74448;SDS011;62878;51.026;4.472;2022-12-18T09:23:10;15.32;;;7.38;;
74448;SDS011;62878;51.026;4.472;2022-12-18T09:25:36;11.50;;;6.68;;
74448;SDS011;62878;51.026;4.472;2022-12-18T09:28:03;13.02;;;7.28;;
74448;SDS011;62878;51.026;4.472;2022-12-18T09:30:39;11.68;;;6.05;;
74448;SDS011;62878;51.026;4.472;2022-12-18T09:33:06;17.20;;;7.40;;
74448;SDS011;62878;51.026;4.472;2022-12-18T09:35:31;13.55;;;6.28;;
74448;SDS011;62878;51.026;4.472;2022-12-18T09:37:58;12.65;;;6.20;;
74448;SDS011;62878;51.026;4.472;2022-12-18T09:40:24;12.13;;;5.97;;
74448;SDS011;62878;51.026;4.472;2022-12-18T09:42:54;13.40;;;6.40;;
74448;SDS011;62878;51.026;4.472;2022-12-18T09:45:22;12.73;;;6.63;;
74448;SDS011;62878;51.026;4.472;2022-12-18T09:47:49;14.27;;;7.28;;
74448;SDS011;62878;51.026;4.472;2022-12-18T09:52:59;12.85;;;6.82;;
74448;SDS011;62878;51.026;4.472;2022-12-18T09:55:40;13.23;;;6.20;;
74448;SDS011;62878;51.026;4.472;2022-12-18T09:58:12;12.77;;;6.18;;
74448;SDS011;62878;51.026;4.472;2022-12-18T10:00:43;11.68;;;6.05;;
74448;SDS011;62878;51.026;4.472;2022-12-18T10:03:09;11.98;;;5.75;;
74448;SDS011;62878;51.026;4.472;2022-12-18T10:20:05;14.38;;;7.03;;
74448;SDS011;62878;51.026;4.472;2022-12-18T10:28:17;10.52;;;5.18;;
74448;SDS011;62878;51.026;4.472;2022-12-18T10:30:44;12.77;;;6.32;;
74448;SDS011;62878;51.026;4.472;2022-12-18T10:33:11;11.20;;;5.55;;
74448;SDS011;62878;51.026;4.472;2022-12-18T10:35:40;10.00;;;5.20;;
74448;SDS011;62878;51.026;4.472;2022-12-18T10:43:13;11.05;;;5.45;;
74448;SDS011;62878;51.026;4.472;2022-12-18T10:45:40;9.82;;;5.72;;
74448;SDS011;62878;51.026;4.472;2022-12-18T10:48:19;10.77;;;5.90;;
74448;SDS011;62878;51.026;4.472;2022-12-18T10:50:46;9.93;;;6.00;;
74448;SDS011;62878;51.026;4.472;2022-12-18T10:53:18;10.93;;;5.10;;
74448;SDS011;62878;51.026;4.472;2022-12-18T10:55:46;9.48;;;5.60;;
74448;SDS011;62878;51.026;4.472;2022-12-18T11:03:42;7.60;;;4.53;;
74448;SDS011;62878;51.026;4.472;2022-12-18T11:06:16;10.23;;;5.25;;
74448;SDS011;62878;51.026;4.472;2022-12-18T11:08:44;10.18;;;5.07;;
74448;SDS011;62878;51.026;4.472;2022-12-18T11:11:22;8.13;;;5.05;;
74448;SDS011;62878;51.026;4.472;2022-12-18T11:13:51;8.20;;;4.57;;
74448;SDS011;62878;51.026;4.472;2022-12-18T11:16:24;7.38;;;4.50;;
74448;SDS011;62878;51.026;4.472;2022-12-18T11:18:49;7.88;;;5.03;;
74448;SDS011;62878;51.026;4.472;2022-12-18T11:21:15;10.98;;;5.13;;
74448;SDS011;62878;51.026;4.472;2022-12-18T11:23:46;10.25;;;4.80;;
74448;SDS011;62878;51.026;4.472;2022-12-18T11:26:16;8.38;;;5.18;;
74448;SDS011;62878;51.026;4.472;2022-12-18T11:31:26;9.85;;;4.13;;
74448;SDS011;62878;51.026;4.472;2022-12-18T11:34:09;8.00;;;4.35;;
74448;SDS011;62878;51.026;4.472;2022-12-18T11:36:41;7.40;;;4.47;;
74448;SDS011;62878;51.026;4.472;2022-12-18T11:39:15;12.57;;;5.15;;
74448;SDS011;62878;51.026;4.472;2022-12-18T11:41:55;12.80;;;6.38;;
74448;SDS011;62878;51.026;4.472;2022-12-18T11:44:52;8.88;;;4.90;;
74448;SDS011;62878;51.026;4.472;2022-12-18T11:50:14;8.40;;;4.70;;
74448;SDS011;62878;51.026;4.472;2022-12-18T11:52:43;10.07;;;5.40;;
74448;SDS011;62878;51.026;4.472;2022-12-18T11:55:56;9.05;;;4.95;;
74448;SDS011;62878;51.026;4.472;2022-12-18T12:00:44;8.80;;;4.53;;
74448;SDS011;62878;51.026;4.472;2022-12-18T12:10:31;8.77;;;5.05;;
74448;SDS011;62878;51.026;4.472;2022-12-18T12:12:54;8.40;;;5.15;;
74448;SDS011;62878;51.026;4.472;2022-12-18T12:20:46;9.70;;;4.70;;
74448;SDS011;62878;51.026;4.472;2022-12-18T12:26:27;6.70;;;4.28;;
74448;SDS011;62878;51.026;4.472;2022-12-18T12:29:23;7.97;;;4.35;;
74448;SDS011;62878;51.026;4.472;2022-12-18T12:34:34;8.98;;;3.92;;
74448;SDS011;62878;51.026;4.472;2022-12-18T12:39:40;10.30;;;4.43;;
74448;SDS011;62878;51.026;4.472;2022-12-18T12:42:20;8.50;;;4.00;;
74448;SDS011;62878;51.026;4.472;2022-12-18T12:45:17;7.20;;;3.97;;
74448;SDS011;62878;51.026;4.472;2022-12-18T12:47:47;6.75;;;4.10;;
74448;SDS011;62878;51.026;4.472;2022-12-18T12:50:16;6.22;;;3.75;;
74448;SDS011;62878;51.026;4.472;2022-12-18T12:52:45;13.00;;;4.68;;
74448;SDS011;62878;51.026;4.472;2022-12-18T12:55:21;7.68;;;4.18;;
74448;SDS011;62878;51.026;4.472;2022-12-18T12:57:54;8.63;;;4.75;;
74448;SDS011;62878;51.026;4.472;2022-12-18T13:00:28;7.07;;;4.45;;
74448;SDS011;62878;51.026;4.472;2022-12-18T13:05:58;9.95;;;4.57;;
74448;SDS011;62878;51.026;4.472;2022-12-18T13:08:31;7.70;;;3.97;;
74448;SDS011;62878;51.026;4.472;2022-12-18T13:11:28;7.13;;;3.40;;
74448;SDS011;62878;51.026;4.472;2022-12-18T13:14:28;7.40;;;4.35;;
74448;SDS011;62878;51.026;4.472;2022-12-18T13:17:13;7.28;;;3.85;;
74448;SDS011;62878;51.026;4.472;2022-12-18T13:19:50;6.97;;;4.15;;
74448;SDS011;62878;51.026;4.472;2022-12-18T13:22:25;8.35;;;4.25;;
74448;SDS011;62878;51.026;4.472;2022-12-18T13:24:55;8.05;;;3.67;;
74448;SDS011;62878;51.026;4.472;2022-12-18T13:33:30;7.50;;;3.83;;
74448;SDS011;62878;51.026;4.472;2022-12-18T13:38:42;14.88;;;9.20;;
74448;SDS011;62878;51.026;4.472;2022-12-18T13:43:45;15.90;;;8.38;;
74448;SDS011;62878;51.026;4.472;2022-12-18T13:46:22;14.63;;;7.97;;
74448;SDS011;62878;51.026;4.472;2022-12-18T13:48:59;14.10;;;7.75;;
74448;SDS011;62878;51.026;4.472;2022-12-18T13:51:26;15.68;;;8.30;;
74448;SDS011;62878;51.026;4.472;2022-12-18T13:53:54;23.00;;;9.35;;
74448;SDS011;62878;51.026;4.472;2022-12-18T13:56:30;14.23;;;7.05;;
74448;SDS011;62878;51.026;4.472;2022-12-18T14:02:00;23.17;;;7.28;;
74448;SDS011;62878;51.026;4.472;2022-12-18T14:04:34;12.65;;;6.47;;
74448;SDS011;62878;51.026;4.472;2022-12-18T14:09:35;10.10;;;5.85;;
74448;SDS011;62878;51.026;4.472;2022-12-18T14:12:04;8.55;;;5.00;;
74448;SDS011;62878;51.026;4.472;2022-12-18T14:14:49;8.83;;;5.50;;
74448;SDS011;62878;51.026;4.472;2022-12-18T14:17:16;11.88;;;5.72;;
74448;SDS011;62878;51.026;4.472;2022-12-18T14:19:46;8.02;;;4.30;;
74448;SDS011;62878;51.026;4.472;2022-12-18T14:22:18;10.00;;;5.00;;
74448;SDS011;62878;51.026;4.472;2022-12-18T14:24:46;9.88;;;5.03;;
74448;SDS011;62878;51.026;4.472;2022-12-18T14:27:13;10.73;;;5.13;;
74448;SDS011;62878;51.026;4.472;2022-12-18T14:29:46;8.07;;;3.93;;
74448;SDS011;62878;51.026;4.472;2022-12-18T14:34:50;7.90;;;4.53;;
74448;SDS011;62878;51.026;4.472;2022-12-18T14:37:22;8.20;;;4.20;;
74448;SDS011;62878;51.026;4.472;2022-12-18T14:39:56;8.38;;;5.13;;
74448;SDS011;62878;51.026;4.472;2022-12-18T14:42:24;8.45;;;4.70;;
74448;SDS011;62878;51.026;4.472;2022-12-18T14:45:18;6.65;;;3.63;;
74448;SDS011;62878;51.026;4.472;2022-12-18T14:47:56;6.97;;;4.40;;
74448;SDS011;62878;51.026;4.472;2022-12-18T14:50:22;8.40;;;4.57;;
74448;SDS011;62878;51.026;4.472;2022-12-18T14:52:47;8.75;;;5.28;;
74448;SDS011;62878;51.026;4.472;2022-12-18T14:55:14;11.18;;;5.30;;
74448;SDS011;62878;51.026;4.472;2022-12-18T14:57:44;8.40;;;4.70;;
74448;SDS011;62878;51.026;4.472;2022-12-18T15:00:18;9.90;;;5.50;;
74448;SDS011;62878;51.026;4.472;2022-12-18T15:02:45;6.93;;;4.47;;
74448;SDS011;62878;51.026;4.472;2022-12-18T15:07:39;9.07;;;5.07;;
74448;SDS011;62878;51.026;4.472;2022-12-18T15:10:17;9.57;;;5.60;;
74448;SDS011;62878;51.026;4.472;2022-12-18T15:18:12;11.30;;;5.72;;
74448;SDS011;62878;51.026;4.472;2022-12-18T15:25:43;9.32;;;4.82;;
74448;SDS011;62878;51.026;4.472;2022-12-18T15:28:19;8.07;;;5.32;;
74448;SDS011;62878;51.026;4.472;2022-12-18T15:31:02;10.95;;;4.97;;
74448;SDS011;62878;51.026;4.472;2022-12-18T15:33:30;11.15;;;5.60;;
74448;SDS011;62878;51.026;4.472;2022-12-18T15:36:07;9.07;;;5.07;;
74448;SDS011;62878;51.026;4.472;2022-12-18T15:38:34;11.23;;;5.28;;
74448;SDS011;62878;51.026;4.472;2022-12-18T15:41:00;8.68;;;5.38;;
74448;SDS011;62878;51.026;4.472;2022-12-18T15:43:27;8.75;;;4.95;;
74448;SDS011;62878;51.026;4.472;2022-12-18T15:45:58;11.25;;;5.05;;
74448;SDS011;62878;51.026;4.472;2022-12-18T15:48:24;9.95;;;5.53;;
74448;SDS011;62878;51.026;4.472;2022-12-18T15:50:50;8.27;;;4.72;;
74448;SDS011;62878;51.026;4.472;2022-12-18T15:53:17;10.10;;;5.28;;
74448;SDS011;62878;51.026;4.472;2022-12-18T15:55:42;9.65;;;5.60;;
74448;SDS011;62878;51.026;4.472;2022-12-18T15:58:26;11.38;;;5.28;;
74448;SDS011;62878;51.026;4.472;2022-12-18T16:00:51;8.38;;;4.60;;
74448;SDS011;62878;51.026;4.472;2022-12-18T16:03:17;10.02;;;4.80;;
74448;SDS011;62878;51.026;4.472;2022-12-18T16:05:42;12.68;;;5.78;;
74448;SDS011;62878;51.026;4.472;2022-12-18T16:08:07;10.30;;;5.20;;
74448;SDS011;62878;51.026;4.472;2022-12-18T16:10:33;8.73;;;4.95;;
74448;SDS011;62878;51.026;4.472;2022-12-18T16:12:59;8.50;;;4.68;;
74448;SDS011;62878;51.026;4.472;2022-12-18T16:15:25;12.02;;;5.45;;
74448;SDS011;62878;51.026;4.472;2022-12-18T16:17:50;8.65;;;4.97;;
74448;SDS011;62878;51.026;4.472;2022-12-18T16:20:17;8.10;;;4.93;;
74448;SDS011;62878;51.026;4.472;2022-12-18T16:22:47;8.63;;;5.15;;
74448;SDS011;62878;51.026;4.472;2022-12-18T16:25:18;14.85;;;5.20;;
74448;SDS011;62878;51.026;4.472;2022-12-18T16:27:48;10.95;;;5.20;;
74448;SDS011;62878;51.026;4.472;2022-12-18T16:30:14;9.13;;;5.00;;
74448;SDS011;62878;51.026;4.472;2022-12-18T16:32:41;11.13;;;4.68;;
74448;SDS011;62878;51.026;4.472;2022-12-18T16:35:08;10.52;;;5.70;;
74448;SDS011;62878;51.026;4.472;2022-12-18T16:37:35;7.03;;;4.80;;
74448;SDS011;62878;51.026;4.472;2022-12-18T16:40:00;11.75;;;5.03;;
74448;SDS011;62878;51.026;4.472;2022-12-18T16:42:25;9.35;;;5.50;;
74448;SDS011;62878;51.026;4.472;2022-12-18T16:44:51;9.50;;;4.30;;
74448;SDS011;62878;51.026;4.472;2022-12-18T16:47:17;11.95;;;5.65;;
74448;SDS011;62878;51.026;4.472;2022-12-18T16:49:43;9.60;;;5.05;;